sensor_id;sensor_type;location;lat;lon;timestamp;pressure;altitude;pressure_sealevel;temperature;humidity
63954;BME280;50128;52.094;5.232;2022-08-19T00:01:22;101287.0;;;18.31;95.77
63954;BME280;50128;52.094;5.232;2022-08-19T00:02:59;101289.0;;;18.3;94.86
63954;BME280;50128;52.094;5.232;2022-08-19T00:04:36;101276.0;;;18.27;95.38
63954;BME280;50128;52.094;5.232;2022-08-19T00:07:50;101273.0;;;18.23;95.4
63954;BME280;50128;52.094;5.232;2022-08-19T00:09:27;101272.0;;;18.2;94.88
63954;BME280;50128;52.094;5.232;2022-08-19T00:11:04;101277.0;;;18.16;94.55
63954;BME280;50128;52.094;5.232;2022-08-19T00:14:18;101278.0;;;18.09;95.33
63954;BME280;50128;52.094;5.232;2022-08-19T00:17:31;101287.0;;;18.09;95.72
63954;BME280;50128;52.094;5.232;2022-08-19T00:20:45;101290.0;;;18.03;96.64
63954;BME280;50128;52.094;5.232;2022-08-19T00:22:21;101289.0;;;18.04;95.68
63954;BME280;50128;52.094;5.232;2022-08-19T00:23:58;101286.0;;;18.02;96.34
63954;BME280;50128;52.094;5.232;2022-08-19T00:25:36;101289.0;;;18.03;95.92
63954;BME280;50128;52.094;5.232;2022-08-19T00:28:49;101287.0;;;18.02;96.17
63954;BME280;50128;52.094;5.232;2022-08-19T00:30:28;101286.0;;;17.98;96.45
63954;BME280;50128;52.094;5.232;2022-08-19T00:32:04;101287.0;;;18.0;96.31
63954;BME280;50128;52.094;5.232;2022-08-19T00:35:17;101285.0;;;17.96;96.67
63954;BME280;50128;52.094;5.232;2022-08-19T00:36:54;101280.0;;;17.93;96.9
63954;BME280;50128;52.094;5.232;2022-08-19T00:38:32;101283.0;;;17.98;96.85
63954;BME280;50128;52.094;5.232;2022-08-19T00:40:11;101283.0;;;17.95;95.83
63954;BME280;50128;52.094;5.232;2022-08-19T00:43:27;101280.0;;;17.91;96.35
63954;BME280;50128;52.094;5.232;2022-08-19T00:45:09;101275.0;;;17.97;96.2
63954;BME280;50128;52.094;5.232;2022-08-19T00:46:49;101270.0;;;17.96;95.96
63954;BME280;50128;52.094;5.232;2022-08-19T00:48:26;101273.0;;;18.09;95.33
63954;BME280;50128;52.094;5.232;2022-08-19T00:51:42;101278.0;;;17.91;95.31
63954;BME280;50128;52.094;5.232;2022-08-19T00:53:23;101281.0;;;17.84;95.66
63954;BME280;50128;52.094;5.232;2022-08-19T00:55:06;101286.0;;;17.79;96.51
63954;BME280;50128;52.094;5.232;2022-08-19T00:58:25;101282.0;;;17.82;95.56
63954;BME280;50128;52.094;5.232;2022-08-19T01:00:09;101284.0;;;17.8;96.41
63954;BME280;50128;52.094;5.232;2022-08-19T01:01:46;101281.0;;;17.79;96.89
63954;BME280;50128;52.094;5.232;2022-08-19T01:03:23;101280.0;;;17.77;97.22
63954;BME280;50128;52.094;5.232;2022-08-19T01:06:41;101278.0;;;17.77;96.67
63954;BME280;50128;52.094;5.232;2022-08-19T01:08:18;101277.0;;;17.72;96.41
63954;BME280;50128;52.094;5.232;2022-08-19T01:09:55;101277.0;;;17.68;96.23
63954;BME280;50128;52.094;5.232;2022-08-19T01:11:36;101278.0;;;17.68;96.53
63954;BME280;50128;52.094;5.232;2022-08-19T01:14:59;101275.0;;;17.71;96.35
63954;BME280;50128;52.094;5.232;2022-08-19T01:16:37;101274.0;;;17.68;95.91
63954;BME280;50128;52.094;5.232;2022-08-19T01:18:17;101273.0;;;17.66;96.69
63954;BME280;50128;52.094;5.232;2022-08-19T01:19:54;101271.0;;;17.7;96.28
63954;BME280;50128;52.094;5.232;2022-08-19T01:23:20;101271.0;;;17.7;96.26
63954;BME280;50128;52.094;5.232;2022-08-19T01:24:56;101267.0;;;17.68;96.14
63954;BME280;50128;52.094;5.232;2022-08-19T01:26:39;101268.0;;;17.7;95.94
63954;BME280;50128;52.094;5.232;2022-08-19T01:28:18;101267.0;;;17.61;96.4
63954;BME280;50128;52.094;5.232;2022-08-19T01:31:31;101272.0;;;17.61;95.67
63954;BME280;50128;52.094;5.232;2022-08-19T01:33:07;101275.0;;;17.52;95.7
63954;BME280;50128;52.094;5.232;2022-08-19T01:34:47;101280.0;;;17.48;95.81
63954;BME280;50128;52.094;5.232;2022-08-19T01:38:10;101282.0;;;17.47;95.91
63954;BME280;50128;52.094;5.232;2022-08-19T01:39:46;101284.0;;;17.47;95.82
63954;BME280;50128;52.094;5.232;2022-08-19T01:41:24;101291.0;;;17.47;97.08
63954;BME280;50128;52.094;5.232;2022-08-19T01:43:00;101297.0;;;17.5;96.12
63954;BME280;50128;52.094;5.232;2022-08-19T01:46:15;101296.0;;;17.45;96.69
63954;BME280;50128;52.094;5.232;2022-08-19T01:47:52;101297.0;;;17.43;96.16
63954;BME280;50128;52.094;5.232;2022-08-19T01:49:29;101286.0;;;17.39;96.98
63954;BME280;50128;52.094;5.232;2022-08-19T01:52:45;101282.0;;;17.41;96.19
63954;BME280;50128;52.094;5.232;2022-08-19T01:54:23;101284.0;;;17.38;96.81
63954;BME280;50128;52.094;5.232;2022-08-19T01:56:01;101285.0;;;17.36;96.08
63954;BME280;50128;52.094;5.232;2022-08-19T01:57:40;101289.0;;;17.32;96.73
63954;BME280;50128;52.094;5.232;2022-08-19T02:01:00;101292.0;;;17.31;97.12
63954;BME280;50128;52.094;5.232;2022-08-19T02:02:36;101291.0;;;17.3;97.41
63954;BME280;50128;52.094;5.232;2022-08-19T02:04:12;101289.0;;;17.28;96.77
63954;BME280;50128;52.094;5.232;2022-08-19T02:07:33;101287.0;;;17.25;96.77
63954;BME280;50128;52.094;5.232;2022-08-19T02:09:08;101288.0;;;17.27;96.66
63954;BME280;50128;52.094;5.232;2022-08-19T02:10:46;101291.0;;;17.28;96.87
63954;BME280;50128;52.094;5.232;2022-08-19T02:12:22;101290.0;;;17.34;97.04
63954;BME280;50128;52.094;5.232;2022-08-19T02:15:37;101285.0;;;17.29;97.88
63954;BME280;50128;52.094;5.232;2022-08-19T02:17:13;101290.0;;;17.27;97.58
63954;BME280;50128;52.094;5.232;2022-08-19T02:18:50;101288.0;;;17.29;96.98
63954;BME280;50128;52.094;5.232;2022-08-19T02:22:04;101286.0;;;17.3;96.19
63954;BME280;50128;52.094;5.232;2022-08-19T02:23:40;101282.0;;;17.23;96.99
63954;BME280;50128;52.094;5.232;2022-08-19T02:25:16;101287.0;;;17.23;96.11
63954;BME280;50128;52.094;5.232;2022-08-19T02:26:53;101281.0;;;17.23;96.58
63954;BME280;50128;52.094;5.232;2022-08-19T02:30:08;101284.0;;;17.2;96.88
63954;BME280;50128;52.094;5.232;2022-08-19T02:31:47;101285.0;;;17.25;96.76
63954;BME280;50128;52.094;5.232;2022-08-19T02:33:23;101289.0;;;17.18;96.15
63954;BME280;50128;52.094;5.232;2022-08-19T02:36:36;101290.0;;;17.16;96.54
63954;BME280;50128;52.094;5.232;2022-08-19T02:38:29;101294.0;;;17.18;97.13
63954;BME280;50128;52.094;5.232;2022-08-19T02:40:07;101292.0;;;17.25;95.94
63954;BME280;50128;52.094;5.232;2022-08-19T02:41:44;101296.0;;;17.18;97.41
63954;BME280;50128;52.094;5.232;2022-08-19T02:44:58;101298.0;;;17.16;96.72
63954;BME280;50128;52.094;5.232;2022-08-19T02:46:34;101299.0;;;17.11;96.24
63954;BME280;50128;52.094;5.232;2022-08-19T02:48:11;101303.0;;;17.11;96.82
63954;BME280;50128;52.094;5.232;2022-08-19T02:49:49;101296.0;;;17.02;96.96
63954;BME280;50128;52.094;5.232;2022-08-19T02:53:08;101298.0;;;17.0;97.24
63954;BME280;50128;52.094;5.232;2022-08-19T02:54:46;101290.0;;;17.0;96.65
63954;BME280;50128;52.094;5.232;2022-08-19T02:56:23;101283.0;;;17.04;95.75
63954;BME280;50128;52.094;5.232;2022-08-19T02:59:36;101282.0;;;17.04;96.27
63954;BME280;50128;52.094;5.232;2022-08-19T03:01:20;101280.0;;;17.16;96.2
63954;BME280;50128;52.094;5.232;2022-08-19T03:02:57;101282.0;;;17.18;96.47
63954;BME280;50128;52.094;5.232;2022-08-19T03:04:33;101283.0;;;17.14;96.51
63954;BME280;50128;52.094;5.232;2022-08-19T03:07:49;101287.0;;;17.09;97.13
63954;BME280;50128;52.094;5.232;2022-08-19T03:09:26;101290.0;;;17.02;97.24
63954;BME280;50128;52.094;5.232;2022-08-19T03:11:03;101286.0;;;17.02;97.04
63954;BME280;50128;52.094;5.232;2022-08-19T03:14:18;101275.0;;;17.02;97.22
63954;BME280;50128;52.094;5.232;2022-08-19T03:15:54;101274.0;;;16.96;96.52
63954;BME280;50128;52.094;5.232;2022-08-19T03:17:30;101274.0;;;16.95;96.28
63954;BME280;50128;52.094;5.232;2022-08-19T03:19:06;101276.0;;;16.93;97.17
63954;BME280;50128;52.094;5.232;2022-08-19T03:22:21;101274.0;;;16.98;96.63
63954;BME280;50128;52.094;5.232;2022-08-19T03:24:01;101273.0;;;16.93;97.46
63954;BME280;50128;52.094;5.232;2022-08-19T03:25:46;101272.0;;;16.88;98.38
63954;BME280;50128;52.094;5.232;2022-08-19T03:29:03;101275.0;;;16.89;97.58
63954;BME280;50128;52.094;5.232;2022-08-19T03:30:42;101275.0;;;16.95;96.33
63954;BME280;50128;52.094;5.232;2022-08-19T03:32:19;101281.0;;;16.89;96.41
63954;BME280;50128;52.094;5.232;2022-08-19T03:33:55;101276.0;;;16.84;96.6
63954;BME280;50128;52.094;5.232;2022-08-19T03:37:10;101275.0;;;16.84;97.18
63954;BME280;50128;52.094;5.232;2022-08-19T03:38:51;101275.0;;;16.79;97.27
63954;BME280;50128;52.094;5.232;2022-08-19T03:40:30;101280.0;;;16.82;96.6
63954;BME280;50128;52.094;5.232;2022-08-19T03:42:07;101275.0;;;16.7;96.58
63954;BME280;50128;52.094;5.232;2022-08-19T03:45:23;101275.0;;;16.78;97.38
63954;BME280;50128;52.094;5.232;2022-08-19T03:47:00;101278.0;;;16.8;97.77
63954;BME280;50128;52.094;5.232;2022-08-19T03:48:37;101274.0;;;16.8;97.81
63954;BME280;50128;52.094;5.232;2022-08-19T03:51:52;101273.0;;;16.84;97.58
63954;BME280;50128;52.094;5.232;2022-08-19T03:53:31;101274.0;;;16.77;97.26
63954;BME280;50128;52.094;5.232;2022-08-19T03:55:08;101270.0;;;16.72;96.55
63954;BME280;50128;52.094;5.232;2022-08-19T03:56:47;101272.0;;;16.71;96.53
63954;BME280;50128;52.094;5.232;2022-08-19T04:00:05;101267.0;;;16.65;97.09
63954;BME280;50128;52.094;5.232;2022-08-19T04:01:42;101269.0;;;16.64;96.85
63954;BME280;50128;52.094;5.232;2022-08-19T04:03:19;101271.0;;;16.68;97.3
63954;BME280;50128;52.094;5.232;2022-08-19T04:06:33;101275.0;;;16.68;96.72
63954;BME280;50128;52.094;5.232;2022-08-19T04:08:11;101280.0;;;16.73;96.95
63954;BME280;50128;52.094;5.232;2022-08-19T04:09:48;101276.0;;;16.71;96.28
63954;BME280;50128;52.094;5.232;2022-08-19T04:11:25;101278.0;;;16.72;95.7
63954;BME280;50128;52.094;5.232;2022-08-19T04:14:41;101275.0;;;16.59;96.35
63954;BME280;50128;52.094;5.232;2022-08-19T04:16:20;101280.0;;;16.61;96.75
63954;BME280;50128;52.094;5.232;2022-08-19T04:17:56;101276.0;;;16.59;97.16
63954;BME280;50128;52.094;5.232;2022-08-19T04:21:16;101272.0;;;16.59;96.56
63954;BME280;50128;52.094;5.232;2022-08-19T04:22:53;101272.0;;;16.59;96.4
63954;BME280;50128;52.094;5.232;2022-08-19T04:24:29;101275.0;;;16.59;96.46
63954;BME280;50128;52.094;5.232;2022-08-19T04:26:06;101273.0;;;16.59;96.56
63954;BME280;50128;52.094;5.232;2022-08-19T04:29:25;101269.0;;;16.59;96.43
63954;BME280;50128;52.094;5.232;2022-08-19T04:31:01;101268.0;;;16.59;96.27
63954;BME280;50128;52.094;5.232;2022-08-19T04:32:37;101263.0;;;16.77;95.34
63954;BME280;50128;52.094;5.232;2022-08-19T04:35:58;101258.0;;;16.71;95.75
63954;BME280;50128;52.094;5.232;2022-08-19T04:37:34;101257.0;;;16.63;95.79
63954;BME280;50128;52.094;5.232;2022-08-19T04:39:15;101261.0;;;16.61;96.78
63954;BME280;50128;52.094;5.232;2022-08-19T04:43:47;101257.0;;;16.5;97.21
63954;BME280;50128;52.094;5.232;2022-08-19T04:45:24;101260.0;;;16.5;96.92
63954;BME280;50128;52.094;5.232;2022-08-19T04:47:00;101260.0;;;16.53;96.66
63954;BME280;50128;52.094;5.232;2022-08-19T04:50:15;101262.0;;;16.5;97.02
63954;BME280;50128;52.094;5.232;2022-08-19T04:51:54;101264.0;;;16.45;97.14
63954;BME280;50128;52.094;5.232;2022-08-19T04:53:32;101266.0;;;16.48;96.81
63954;BME280;50128;52.094;5.232;2022-08-19T04:56:51;101268.0;;;16.5;96.67
63954;BME280;50128;52.094;5.232;2022-08-19T04:58:28;101269.0;;;16.55;96.87
63954;BME280;50128;52.094;5.232;2022-08-19T05:00:05;101275.0;;;16.53;97.1
63954;BME280;50128;52.094;5.232;2022-08-19T05:01:42;101285.0;;;16.63;96.37
63954;BME280;50128;52.094;5.232;2022-08-19T05:04:57;101290.0;;;16.66;96.17
63954;BME280;50128;52.094;5.232;2022-08-19T05:06:35;101288.0;;;16.64;97.35
63954;BME280;50128;52.094;5.232;2022-08-19T05:08:13;101292.0;;;16.59;97.65
63954;BME280;50128;52.094;5.232;2022-08-19T05:11:28;101295.0;;;16.57;98.19
63954;BME280;50128;52.094;5.232;2022-08-19T05:13:09;101295.0;;;16.63;98.54
63954;BME280;50128;52.094;5.232;2022-08-19T05:14:47;101294.0;;;16.66;98.92
63954;BME280;50128;52.094;5.232;2022-08-19T05:16:27;101296.0;;;16.68;99.13
63954;BME280;50128;52.094;5.232;2022-08-19T05:24:29;101299.0;;;16.81;98.5
63954;BME280;50128;52.094;5.232;2022-08-19T05:26:06;101299.0;;;16.84;98.78
63954;BME280;50128;52.094;5.232;2022-08-19T05:27:42;101305.0;;;16.9;98.94
63954;BME280;50128;52.094;5.232;2022-08-19T05:29:21;101300.0;;;17.0;99.41
63954;BME280;50128;52.094;5.232;2022-08-19T05:30:57;101300.0;;;17.07;99.75
63954;BME280;50128;52.094;5.232;2022-08-19T05:34:12;101298.0;;;17.16;100.0
63954;BME280;50128;52.094;5.232;2022-08-19T05:35:49;101296.0;;;17.23;100.0
63954;BME280;50128;52.094;5.232;2022-08-19T05:37:27;101293.0;;;17.32;100.0
63954;BME280;50128;52.094;5.232;2022-08-19T05:40:42;101294.0;;;17.36;100.0
63954;BME280;50128;52.094;5.232;2022-08-19T05:42:20;101290.0;;;17.45;99.93
63954;BME280;50128;52.094;5.232;2022-08-19T05:43:58;101292.0;;;17.52;99.75
63954;BME280;50128;52.094;5.232;2022-08-19T05:45:38;101287.0;;;17.54;99.59
63954;BME280;50128;52.094;5.232;2022-08-19T05:48:53;101293.0;;;17.63;99.61
63954;BME280;50128;52.094;5.232;2022-08-19T05:50:30;101294.0;;;17.7;99.95
63954;BME280;50128;52.094;5.232;2022-08-19T05:52:10;101295.0;;;17.98;98.34
63954;BME280;50128;52.094;5.232;2022-08-19T05:55:23;101294.0;;;17.91;99.17
63954;BME280;50128;52.094;5.232;2022-08-19T05:57:00;101294.0;;;17.91;99.75
63954;BME280;50128;52.094;5.232;2022-08-19T05:58:38;101290.0;;;17.95;99.56
63954;BME280;50128;52.094;5.232;2022-08-19T06:00:15;101286.0;;;18.02;99.75
63954;BME280;50128;52.094;5.232;2022-08-19T06:03:32;101283.0;;;18.07;99.74
63954;BME280;50128;52.094;5.232;2022-08-19T06:05:10;101285.0;;;18.16;99.92
63954;BME280;50128;52.094;5.232;2022-08-19T06:06:48;101285.0;;;18.27;99.39
63954;BME280;50128;52.094;5.232;2022-08-19T06:10:02;101287.0;;;18.38;98.91
63954;BME280;50128;52.094;5.232;2022-08-19T06:11:42;101290.0;;;18.45;98.61
63954;BME280;50128;52.094;5.232;2022-08-19T06:13:20;101288.0;;;18.53;98.64
63954;BME280;50128;52.094;5.232;2022-08-19T06:14:58;101286.0;;;18.64;98.59
63954;BME280;50128;52.094;5.232;2022-08-19T06:18:14;101293.0;;;18.78;98.32
63954;BME280;50128;52.094;5.232;2022-08-19T06:19:52;101292.0;;;18.93;97.44
63954;BME280;50128;52.094;5.232;2022-08-19T06:21:29;101298.0;;;18.95;97.19
63954;BME280;50128;52.094;5.232;2022-08-19T06:24:43;101294.0;;;19.03;97.38
63954;BME280;50128;52.094;5.232;2022-08-19T06:26:20;101298.0;;;19.09;96.6
63954;BME280;50128;52.094;5.232;2022-08-19T06:27:57;101299.0;;;19.16;96.09
63954;BME280;50128;52.094;5.232;2022-08-19T06:29:35;101296.0;;;19.18;96.17
63954;BME280;50128;52.094;5.232;2022-08-19T06:32:52;101294.0;;;19.13;95.97
63954;BME280;50128;52.094;5.232;2022-08-19T06:34:32;101295.0;;;19.21;96.18
63954;BME280;50128;52.094;5.232;2022-08-19T06:36:17;101298.0;;;19.22;96.49
63954;BME280;50128;52.094;5.232;2022-08-19T06:37:53;101297.0;;;19.25;95.77
63954;BME280;50128;52.094;5.232;2022-08-19T06:41:14;101300.0;;;19.25;95.91
63954;BME280;50128;52.094;5.232;2022-08-19T06:42:50;101300.0;;;19.34;95.55
63954;BME280;50128;52.094;5.232;2022-08-19T06:44:29;101303.0;;;19.32;95.17
63954;BME280;50128;52.094;5.232;2022-08-19T06:47:48;101306.0;;;19.25;94.79
63954;BME280;50128;52.094;5.232;2022-08-19T06:49:27;101303.0;;;19.32;95.0
63954;BME280;50128;52.094;5.232;2022-08-19T06:51:08;101300.0;;;19.34;95.2
63954;BME280;50128;52.094;5.232;2022-08-19T06:52:44;101302.0;;;19.36;95.98
63954;BME280;50128;52.094;5.232;2022-08-19T06:56:00;101297.0;;;19.43;95.34
63954;BME280;50128;52.094;5.232;2022-08-19T06:57:36;101302.0;;;19.48;94.85
63954;BME280;50128;52.094;5.232;2022-08-19T06:59:15;101303.0;;;19.5;95.49
63954;BME280;50128;52.094;5.232;2022-08-19T07:01:02;101302.0;;;19.52;94.17
63954;BME280;50128;52.094;5.232;2022-08-19T07:04:18;101302.0;;;19.59;93.58
63954;BME280;50128;52.094;5.232;2022-08-19T07:05:56;101302.0;;;19.59;93.38
63954;BME280;50128;52.094;5.232;2022-08-19T07:07:34;101308.0;;;19.55;94.05
63954;BME280;50128;52.094;5.232;2022-08-19T07:09:13;101307.0;;;19.72;93.31
63954;BME280;50128;52.094;5.232;2022-08-19T07:12:30;101305.0;;;19.68;93.21
63954;BME280;50128;52.094;5.232;2022-08-19T07:14:08;101303.0;;;19.84;92.04
63954;BME280;50128;52.094;5.232;2022-08-19T07:15:46;101310.0;;;19.7;92.32
63954;BME280;50128;52.094;5.232;2022-08-19T07:18:59;101308.0;;;19.82;92.75
63954;BME280;50128;52.094;5.232;2022-08-19T07:20:37;101318.0;;;19.8;92.57
63954;BME280;50128;52.094;5.232;2022-08-19T07:22:14;101316.0;;;19.8;91.47
63954;BME280;50128;52.094;5.232;2022-08-19T07:23:51;101321.0;;;19.7;91.76
63954;BME280;50128;52.094;5.232;2022-08-19T07:27:06;101323.0;;;19.79;92.03
63954;BME280;50128;52.094;5.232;2022-08-19T07:28:43;101325.0;;;19.82;91.4
63954;BME280;50128;52.094;5.232;2022-08-19T07:30:23;101327.0;;;19.79;91.38
63954;BME280;50128;52.094;5.232;2022-08-19T07:33:37;101326.0;;;19.75;91.93
63954;BME280;50128;52.094;5.232;2022-08-19T07:35:14;101325.0;;;19.79;91.39
63954;BME280;50128;52.094;5.232;2022-08-19T07:36:51;101321.0;;;19.75;91.29
63954;BME280;50128;52.094;5.232;2022-08-19T07:38:28;101316.0;;;19.75;91.06
63954;BME280;50128;52.094;5.232;2022-08-19T07:41:43;101317.0;;;19.84;90.48
63954;BME280;50128;52.094;5.232;2022-08-19T07:43:25;101317.0;;;19.93;90.21
63954;BME280;50128;52.094;5.232;2022-08-19T07:45:05;101318.0;;;20.04;90.61
63954;BME280;50128;52.094;5.232;2022-08-19T07:48:29;101315.0;;;20.18;89.67
63954;BME280;50128;52.094;5.232;2022-08-19T07:50:08;101323.0;;;20.25;88.99
63954;BME280;50128;52.094;5.232;2022-08-19T07:51:48;101332.0;;;20.27;88.28
63954;BME280;50128;52.094;5.232;2022-08-19T07:53:25;101333.0;;;20.43;87.91
63954;BME280;50128;52.094;5.232;2022-08-19T07:56:42;101335.0;;;20.38;87.68
63954;BME280;50128;52.094;5.232;2022-08-19T07:58:21;101333.0;;;20.69;87.75
63954;BME280;50128;52.094;5.232;2022-08-19T07:59:58;101330.0;;;20.73;85.64
63954;BME280;50128;52.094;5.232;2022-08-19T08:01:35;101336.0;;;20.86;85.24
63954;BME280;50128;52.094;5.232;2022-08-19T08:09:30;101337.0;;;20.88;84.3
63954;BME280;50128;52.094;5.232;2022-08-19T08:11:08;101338.0;;;20.91;84.5
63954;BME280;50128;52.094;5.232;2022-08-19T08:12:46;101342.0;;;21.09;83.54
63954;BME280;50128;52.094;5.232;2022-08-19T08:14:25;101355.0;;;21.01;84.11
63954;BME280;50128;52.094;5.232;2022-08-19T08:17:41;101353.0;;;21.14;82.91
63954;BME280;50128;52.094;5.232;2022-08-19T08:19:19;101356.0;;;21.2;82.14
63954;BME280;50128;52.094;5.232;2022-08-19T08:20:57;101360.0;;;21.15;82.95
63954;BME280;50128;52.094;5.232;2022-08-19T08:23:38;101356.0;;;21.31;82.23
63954;BME280;50128;52.094;5.232;2022-08-19T08:25:17;101357.0;;;21.37;82.21
63954;BME280;50128;52.094;5.232;2022-08-19T08:26:58;101352.0;;;21.44;81.27
63954;BME280;50128;52.094;5.232;2022-08-19T08:30:14;101357.0;;;21.35;80.74
63954;BME280;50128;52.094;5.232;2022-08-19T08:31:54;101357.0;;;21.38;81.72
63954;BME280;50128;52.094;5.232;2022-08-19T08:33:30;101362.0;;;21.36;83.0
63954;BME280;50128;52.094;5.232;2022-08-19T08:35:10;101359.0;;;21.32;81.86
63954;BME280;50128;52.094;5.232;2022-08-19T08:38:25;101364.0;;;21.33;81.5
63954;BME280;50128;52.094;5.232;2022-08-19T08:40:03;101363.0;;;21.4;81.16
63954;BME280;50128;52.094;5.232;2022-08-19T08:41:46;101361.0;;;21.5;81.64
63954;BME280;50128;52.094;5.232;2022-08-19T08:43:34;101359.0;;;21.61;80.86
63954;BME280;50128;52.094;5.232;2022-08-19T08:46:57;101356.0;;;21.89;79.94
63954;BME280;50128;52.094;5.232;2022-08-19T08:50:24;101357.0;;;21.81;78.67
63954;BME280;50128;52.094;5.232;2022-08-19T08:52:06;101355.0;;;21.94;78.58
63954;BME280;50128;52.094;5.232;2022-08-19T08:53:49;101358.0;;;22.09;77.34
63954;BME280;50128;52.094;5.232;2022-08-19T08:57:11;101358.0;;;22.16;77.17
63954;BME280;50128;52.094;5.232;2022-08-19T08:58:58;101358.0;;;22.26;77.89
63954;BME280;50128;52.094;5.232;2022-08-19T09:00:40;101358.0;;;22.27;75.83
63954;BME280;50128;52.094;5.232;2022-08-19T09:02:20;101363.0;;;22.34;76.95
63954;BME280;50128;52.094;5.232;2022-08-19T09:05:38;101358.0;;;22.36;76.56
63954;BME280;50128;52.094;5.232;2022-08-19T09:07:45;101362.0;;;22.47;73.87
63954;BME280;50128;52.094;5.232;2022-08-19T09:09:34;101357.0;;;22.41;76.37
63954;BME280;50128;52.094;5.232;2022-08-19T09:11:19;101360.0;;;22.42;75.94
63954;BME280;50128;52.094;5.232;2022-08-19T09:13:14;101360.0;;;22.45;75.64
63954;BME280;50128;52.094;5.232;2022-08-19T09:15:03;101370.0;;;22.31;77.16
63954;BME280;50128;52.094;5.232;2022-08-19T09:18:18;101374.0;;;22.33;75.19
63954;BME280;50128;52.094;5.232;2022-08-19T09:19:57;101373.0;;;22.45;75.72
63954;BME280;50128;52.094;5.232;2022-08-19T09:21:35;101371.0;;;22.41;74.12
63954;BME280;50128;52.094;5.232;2022-08-19T09:23:11;101371.0;;;22.48;75.53
63954;BME280;50128;52.094;5.232;2022-08-19T09:26:25;101373.0;;;22.6;74.62
63954;BME280;50128;52.094;5.232;2022-08-19T09:28:03;101368.0;;;22.65;73.24
63954;BME280;50128;52.094;5.232;2022-08-19T09:29:39;101370.0;;;22.64;73.05
63954;BME280;50128;52.094;5.232;2022-08-19T09:33:01;101367.0;;;22.84;70.88
63954;BME280;50128;52.094;5.232;2022-08-19T09:34:37;101365.0;;;22.9;70.27
63954;BME280;50128;52.094;5.232;2022-08-19T09:36:15;101372.0;;;22.98;70.95
63954;BME280;50128;52.094;5.232;2022-08-19T09:37:54;101378.0;;;23.07;70.56
63954;BME280;50128;52.094;5.232;2022-08-19T09:41:08;101382.0;;;23.04;71.69
63954;BME280;50128;52.094;5.232;2022-08-19T09:42:48;101377.0;;;22.96;71.75
63954;BME280;50128;52.094;5.232;2022-08-19T09:44:24;101380.0;;;23.07;71.05
63954;BME280;50128;52.094;5.232;2022-08-19T09:47:38;101382.0;;;22.98;72.05
63954;BME280;50128;52.094;5.232;2022-08-19T09:49:15;101380.0;;;22.97;72.58
63954;BME280;50128;52.094;5.232;2022-08-19T09:50:52;101375.0;;;23.03;71.91
63954;BME280;50128;52.094;5.232;2022-08-19T09:52:28;101380.0;;;22.93;73.77
63954;BME280;50128;52.094;5.232;2022-08-19T09:55:41;101375.0;;;22.93;74.13
63954;BME280;50128;52.094;5.232;2022-08-19T09:57:18;101378.0;;;23.25;71.38
63954;BME280;50128;52.094;5.232;2022-08-19T09:58:54;101380.0;;;23.27;71.56
63954;BME280;50128;52.094;5.232;2022-08-19T10:02:10;101377.0;;;23.16;72.25
63954;BME280;50128;52.094;5.232;2022-08-19T10:03:47;101380.0;;;23.07;74.0
63954;BME280;50128;52.094;5.232;2022-08-19T10:05:58;101376.0;;;22.96;73.99
63954;BME280;50128;52.094;5.232;2022-08-19T10:07:35;101375.0;;;23.13;72.94
63954;BME280;50128;52.094;5.232;2022-08-19T10:09:14;101372.0;;;23.22;71.92
63954;BME280;50128;52.094;5.232;2022-08-19T10:12:28;101377.0;;;23.31;71.92
63954;BME280;50128;52.094;5.232;2022-08-19T10:14:06;101372.0;;;23.45;71.12
63954;BME280;50128;52.094;5.232;2022-08-19T10:15:43;101374.0;;;23.45;72.19
63954;BME280;50128;52.094;5.232;2022-08-19T10:18:56;101371.0;;;23.35;73.06
63954;BME280;50128;52.094;5.232;2022-08-19T10:20:35;101370.0;;;23.41;71.88
63954;BME280;50128;52.094;5.232;2022-08-19T10:22:14;101371.0;;;23.44;70.94
63954;BME280;50128;52.094;5.232;2022-08-19T10:23:52;101369.0;;;23.4;71.02
63954;BME280;50128;52.094;5.232;2022-08-19T10:27:09;101365.0;;;23.44;72.19
63954;BME280;50128;52.094;5.232;2022-08-19T10:28:47;101369.0;;;23.63;71.49
63954;BME280;50128;52.094;5.232;2022-08-19T10:30:23;101370.0;;;23.55;71.94
63954;BME280;50128;52.094;5.232;2022-08-19T10:33:39;101369.0;;;23.48;72.02
63954;BME280;50128;52.094;5.232;2022-08-19T10:35:15;101368.0;;;23.5;72.16
63954;BME280;50128;52.094;5.232;2022-08-19T10:36:52;101362.0;;;23.58;73.73
63954;BME280;50128;52.094;5.232;2022-08-19T10:38:28;101366.0;;;23.63;72.66
63954;BME280;50128;52.094;5.232;2022-08-19T10:41:44;101365.0;;;23.9;73.16
63954;BME280;50128;52.094;5.232;2022-08-19T10:43:20;101365.0;;;24.03;72.05
63954;BME280;50128;52.094;5.232;2022-08-19T10:44:57;101367.0;;;24.0;72.3
63954;BME280;50128;52.094;5.232;2022-08-19T10:48:16;101368.0;;;23.96;72.66
63954;BME280;50128;52.094;5.232;2022-08-19T10:52:47;101363.0;;;24.12;71.39
63954;BME280;50128;52.094;5.232;2022-08-19T10:56:51;101366.0;;;23.99;72.19
63954;BME280;50128;52.094;5.232;2022-08-19T10:58:27;101363.0;;;24.21;71.44
63954;BME280;50128;52.094;5.232;2022-08-19T11:00:04;101361.0;;;24.44;70.22
63954;BME280;50128;52.094;5.232;2022-08-19T11:01:41;101359.0;;;24.59;70.36
63954;BME280;50128;52.094;5.232;2022-08-19T11:04:56;101359.0;;;24.58;69.12
63954;BME280;50128;52.094;5.232;2022-08-19T11:06:32;101357.0;;;24.79;70.22
63954;BME280;50128;52.094;5.232;2022-08-19T11:08:11;101352.0;;;24.94;66.88
63954;BME280;50128;52.094;5.232;2022-08-19T11:09:47;101352.0;;;24.83;66.94
63954;BME280;50128;52.094;5.232;2022-08-19T11:13:00;101353.0;;;24.82;67.67
63954;BME280;50128;52.094;5.232;2022-08-19T11:14:36;101350.0;;;25.0;69.64
63954;BME280;50128;52.094;5.232;2022-08-19T11:16:16;101348.0;;;24.99;67.86
63954;BME280;50128;52.094;5.232;2022-08-19T11:19:32;101355.0;;;25.09;67.69
63954;BME280;50128;52.094;5.232;2022-08-19T11:21:12;101346.0;;;25.14;65.99
63954;BME280;50128;52.094;5.232;2022-08-19T11:22:51;101345.0;;;25.28;65.48
63954;BME280;50128;52.094;5.232;2022-08-19T11:24:28;101341.0;;;25.23;65.95